sensor_id;sensor_type;location;lat;lon;timestamp;temperature;humidity
64939;DHT22;51453;47.738;7.420;2024-02-16T00:02:18;11.10;99.90
64939;DHT22;51453;47.738;7.420;2024-02-16T00:04:44;11.10;99.90
64939;DHT22;51453;47.738;7.420;2024-02-16T00:07:09;11.20;99.90
64939;DHT22;51453;47.738;7.420;2024-02-16T00:09:35;11.20;99.90
64939;DHT22;51453;47.738;7.420;2024-02-16T00:12:01;11.20;99.90
64939;DHT22;51453;47.738;7.420;2024-02-16T00:14:26;11.10;99.90
64939;DHT22;51453;47.738;7.420;2024-02-16T00:16:52;11.10;99.90
64939;DHT22;51453;47.738;7.420;2024-02-16T00:19:18;11.10;99.90
64939;DHT22;51453;47.738;7.420;2024-02-16T00:21:43;11.10;99.90
64939;DHT22;51453;47.738;7.420;2024-02-16T00:24:09;11.10;99.90
64939;DHT22;51453;47.738;7.420;2024-02-16T00:26:36;11.10;99.90
64939;DHT22;51453;47.738;7.420;2024-02-16T00:29:01;11.00;99.90
64939;DHT22;51453;47.738;7.420;2024-02-16T00:31:27;11.00;99.90
64939;DHT22;51453;47.738;7.420;2024-02-16T00:33:52;11.00;99.90
64939;DHT22;51453;47.738;7.420;2024-02-16T00:36:18;10.90;99.90
64939;DHT22;51453;47.738;7.420;2024-02-16T00:38:43;11.00;99.90
64939;DHT22;51453;47.738;7.420;2024-02-16T00:41:19;10.90;99.90
64939;DHT22;51453;47.738;7.420;2024-02-16T00:43:45;10.90;99.90
64939;DHT22;51453;47.738;7.420;2024-02-16T00:46:11;10.80;99.90
64939;DHT22;51453;47.738;7.420;2024-02-16T00:48:36;10.80;99.90
64939;DHT22;51453;47.738;7.420;2024-02-16T00:51:02;10.80;99.90
64939;DHT22;51453;47.738;7.420;2024-02-16T00:53:28;10.80;99.90
64939;DHT22;51453;47.738;7.420;2024-02-16T00:55:54;10.80;99.90
64939;DHT22;51453;47.738;7.420;2024-02-16T00:58:20;10.80;99.90
64939;DHT22;51453;47.738;7.420;2024-02-16T01:00:45;10.80;99.90
64939;DHT22;51453;47.738;7.420;2024-02-16T01:03:11;10.80;99.90
64939;DHT22;51453;47.738;7.420;2024-02-16T01:05:38;10.70;99.90
64939;DHT22;51453;47.738;7.420;2024-02-16T01:08:05;10.80;99.90
64939;DHT22;51453;47.738;7.420;2024-02-16T01:10:31;10.80;99.90
64939;DHT22;51453;47.738;7.420;2024-02-16T01:12:57;10.80;99.90
64939;DHT22;51453;47.738;7.420;2024-02-16T01:15:22;10.80;99.90
64939;DHT22;51453;47.738;7.420;2024-02-16T01:17:48;10.80;99.90
64939;DHT22;51453;47.738;7.420;2024-02-16T01:20:13;10.60;99.90
64939;DHT22;51453;47.738;7.420;2024-02-16T01:22:39;10.70;99.90
64939;DHT22;51453;47.738;7.420;2024-02-16T01:25:06;10.60;99.90
64939;DHT22;51453;47.738;7.420;2024-02-16T01:27:32;10.60;99.90
64939;DHT22;51453;47.738;7.420;2024-02-16T01:29:58;10.60;99.90
64939;DHT22;51453;47.738;7.420;2024-02-16T01:32:24;10.60;99.90
64939;DHT22;51453;47.738;7.420;2024-02-16T01:34:49;10.60;99.90
64939;DHT22;51453;47.738;7.420;2024-02-16T01:37:15;10.60;99.90
64939;DHT22;51453;47.738;7.420;2024-02-16T01:39:41;10.50;99.90
64939;DHT22;51453;47.738;7.420;2024-02-16T01:42:06;10.50;99.90
64939;DHT22;51453;47.738;7.420;2024-02-16T01:44:32;10.50;99.90
64939;DHT22;51453;47.738;7.420;2024-02-16T01:46:57;10.50;99.90
64939;DHT22;51453;47.738;7.420;2024-02-16T01:49:23;10.50;99.90
64939;DHT22;51453;47.738;7.420;2024-02-16T01:51:49;10.50;99.90
64939;DHT22;51453;47.738;7.420;2024-02-16T01:54:15;10.40;99.90
64939;DHT22;51453;47.738;7.420;2024-02-16T01:56:44;10.50;99.90
64939;DHT22;51453;47.738;7.420;2024-02-16T01:59:09;10.50;99.90
64939;DHT22;51453;47.738;7.420;2024-02-16T02:01:35;10.40;99.90
64939;DHT22;51453;47.738;7.420;2024-02-16T02:04:01;10.50;99.90
64939;DHT22;51453;47.738;7.420;2024-02-16T02:06:27;10.60;99.90
64939;DHT22;51453;47.738;7.420;2024-02-16T02:08:53;10.60;99.90
64939;DHT22;51453;47.738;7.420;2024-02-16T02:11:19;10.60;99.90
64939;DHT22;51453;47.738;7.420;2024-02-16T02:13:44;10.60;99.90
64939;DHT22;51453;47.738;7.420;2024-02-16T02:16:10;10.50;99.90
64939;DHT22;51453;47.738;7.420;2024-02-16T02:18:36;10.50;99.90
64939;DHT22;51453;47.738;7.420;2024-02-16T02:21:02;10.40;99.90
64939;DHT22;51453;47.738;7.420;2024-02-16T02:23:28;10.40;99.90
64939;DHT22;51453;47.738;7.420;2024-02-16T02:25:53;10.40;99.90
64939;DHT22;51453;47.738;7.420;2024-02-16T02:28:19;10.50;99.90
64939;DHT22;51453;47.738;7.420;2024-02-16T02:30:45;10.60;99.90
64939;DHT22;51453;47.738;7.420;2024-02-16T02:33:11;10.50;99.90
64939;DHT22;51453;47.738;7.420;2024-02-16T02:35:39;10.50;99.90
64939;DHT22;51453;47.738;7.420;2024-02-16T02:38:04;10.50;99.90
64939;DHT22;51453;47.738;7.420;2024-02-16T02:40:31;10.50;99.90
64939;DHT22;51453;47.738;7.420;2024-02-16T02:42:57;10.50;99.90
64939;DHT22;51453;47.738;7.420;2024-02-16T02:45:23;10.60;99.90
64939;DHT22;51453;47.738;7.420;2024-02-16T02:47:50;10.60;99.90
64939;DHT22;51453;47.738;7.420;2024-02-16T02:50:16;10.60;99.90
64939;DHT22;51453;47.738;7.420;2024-02-16T02:52:42;10.60;99.90
64939;DHT22;51453;47.738;7.420;2024-02-16T02:55:07;10.60;99.90
64939;DHT22;51453;47.738;7.420;2024-02-16T02:57:33;10.50;99.90
64939;DHT22;51453;47.738;7.420;2024-02-16T03:00:06;10.50;99.90
64939;DHT22;51453;47.738;7.420;2024-02-16T03:02:36;10.50;99.90
64939;DHT22;51453;47.738;7.420;2024-02-16T03:05:03;10.50;99.90
64939;DHT22;51453;47.738;7.420;2024-02-16T03:07:28;10.50;99.90
64939;DHT22;51453;47.738;7.420;2024-02-16T03:09:54;10.60;99.90
64939;DHT22;51453;47.738;7.420;2024-02-16T03:12:19;10.50;99.90
64939;DHT22;51453;47.738;7.420;2024-02-16T03:14:45;10.50;99.90
64939;DHT22;51453;47.738;7.420;2024-02-16T03:17:11;10.50;99.90
64939;DHT22;51453;47.738;7.420;2024-02-16T03:19:36;10.50;99.90
64939;DHT22;51453;47.738;7.420;2024-02-16T03:22:02;10.50;99.90
64939;DHT22;51453;47.738;7.420;2024-02-16T03:24:28;10.50;99.90
64939;DHT22;51453;47.738;7.420;2024-02-16T03:26:53;10.50;99.90
64939;DHT22;51453;47.738;7.420;2024-02-16T03:29:19;10.50;99.90
64939;DHT22;51453;47.738;7.420;2024-02-16T03:31:44;10.40;99.90
64939;DHT22;51453;47.738;7.420;2024-02-16T03:34:10;10.40;99.90
64939;DHT22;51453;47.738;7.420;2024-02-16T03:36:36;10.40;99.90
64939;DHT22;51453;47.738;7.420;2024-02-16T03:39:01;10.40;99.90
64939;DHT22;51453;47.738;7.420;2024-02-16T03:41:27;10.40;99.90
64939;DHT22;51453;47.738;7.420;2024-02-16T03:43:53;10.30;99.90
64939;DHT22;51453;47.738;7.420;2024-02-16T03:46:20;10.20;99.90
64939;DHT22;51453;47.738;7.420;2024-02-16T03:48:46;10.20;99.90
64939;DHT22;51453;47.738;7.420;2024-02-16T03:51:11;10.20;99.90
64939;DHT22;51453;47.738;7.420;2024-02-16T03:53:37;10.20;99.90
64939;DHT22;51453;47.738;7.420;2024-02-16T03:56:03;10.10;99.90
64939;DHT22;51453;47.738;7.420;2024-02-16T03:58:28;10.10;99.90
64939;DHT22;51453;47.738;7.420;2024-02-16T04:00:54;10.10;99.90
64939;DHT22;51453;47.738;7.420;2024-02-16T04:03:20;10.00;99.90
64939;DHT22;51453;47.738;7.420;2024-02-16T04:05:45;10.00;99.90
64939;DHT22;51453;47.738;7.420;2024-02-16T04:08:11;10.00;99.90
64939;DHT22;51453;47.738;7.420;2024-02-16T04:10:37;10.00;99.90
64939;DHT22;51453;47.738;7.420;2024-02-16T04:13:02;10.00;99.90
64939;DHT22;51453;47.738;7.420;2024-02-16T04:15:28;10.00;99.90
64939;DHT22;51453;47.738;7.420;2024-02-16T04:17:54;10.00;99.90
64939;DHT22;51453;47.738;7.420;2024-02-16T04:20:20;10.00;99.90
64939;DHT22;51453;47.738;7.420;2024-02-16T04:22:46;9.90;99.90
64939;DHT22;51453;47.738;7.420;2024-02-16T04:25:11;9.80;99.90
64939;DHT22;51453;47.738;7.420;2024-02-16T04:27:37;9.90;99.90
64939;DHT22;51453;47.738;7.420;2024-02-16T04:30:04;9.80;99.90
64939;DHT22;51453;47.738;7.420;2024-02-16T04:32:31;9.80;99.90
64939;DHT22;51453;47.738;7.420;2024-02-16T04:34:57;9.80;99.90
64939;DHT22;51453;47.738;7.420;2024-02-16T04:37:23;9.90;99.90
64939;DHT22;51453;47.738;7.420;2024-02-16T04:39:49;9.90;99.90
64939;DHT22;51453;47.738;7.420;2024-02-16T04:42:14;9.80;99.90
64939;DHT22;51453;47.738;7.420;2024-02-16T04:44:40;9.80;99.90
64939;DHT22;51453;47.738;7.420;2024-02-16T04:47:06;9.80;99.90
64939;DHT22;51453;47.738;7.420;2024-02-16T04:49:32;9.80;99.90
64939;DHT22;51453;47.738;7.420;2024-02-16T04:51:58;9.90;99.90
64939;DHT22;51453;47.738;7.420;2024-02-16T04:54:24;9.80;99.90
64939;DHT22;51453;47.738;7.420;2024-02-16T04:56:50;9.90;99.90
64939;DHT22;51453;47.738;7.420;2024-02-16T04:59:16;9.80;99.90
64939;DHT22;51453;47.738;7.420;2024-02-16T05:01:43;9.70;99.90
64939;DHT22;51453;47.738;7.420;2024-02-16T05:04:10;9.70;99.90
64939;DHT22;51453;47.738;7.420;2024-02-16T05:06:41;9.80;99.90
64939;DHT22;51453;47.738;7.420;2024-02-16T05:09:06;9.70;99.90
64939;DHT22;51453;47.738;7.420;2024-02-16T05:11:32;9.70;99.90
64939;DHT22;51453;47.738;7.420;2024-02-16T05:13:58;9.70;99.90
64939;DHT22;51453;47.738;7.420;2024-02-16T05:16:25;9.70;99.90
64939;DHT22;51453;47.738;7.420;2024-02-16T05:18:51;9.60;99.90
64939;DHT22;51453;47.738;7.420;2024-02-16T05:21:16;9.60;99.90
64939;DHT22;51453;47.738;7.420;2024-02-16T05:23:42;9.70;99.90
64939;DHT22;51453;47.738;7.420;2024-02-16T05:26:07;9.50;99.90
64939;DHT22;51453;47.738;7.420;2024-02-16T05:28:33;9.50;99.90
64939;DHT22;51453;47.738;7.420;2024-02-16T05:31:12;9.40;99.90
64939;DHT22;51453;47.738;7.420;2024-02-16T05:33:40;9.40;99.90
64939;DHT22;51453;47.738;7.420;2024-02-16T05:36:06;9.40;99.90
64939;DHT22;51453;47.738;7.420;2024-02-16T05:38:32;9.40;99.90
64939;DHT22;51453;47.738;7.420;2024-02-16T05:41:00;9.50;99.90
64939;DHT22;51453;47.738;7.420;2024-02-16T05:43:26;9.60;99.90
64939;DHT22;51453;47.738;7.420;2024-02-16T05:45:51;9.70;99.90
64939;DHT22;51453;47.738;7.420;2024-02-16T05:48:17;9.80;99.90
64939;DHT22;51453;47.738;7.420;2024-02-16T05:50:43;9.70;99.90
64939;DHT22;51453;47.738;7.420;2024-02-16T05:53:11;9.70;99.90
64939;DHT22;51453;47.738;7.420;2024-02-16T05:55:37;9.70;99.90
64939;DHT22;51453;47.738;7.420;2024-02-16T05:58:02;9.70;99.90
64939;DHT22;51453;47.738;7.420;2024-02-16T06:00:33;9.70;99.90
64939;DHT22;51453;47.738;7.420;2024-02-16T06:02:58;9.70;99.90
64939;DHT22;51453;47.738;7.420;2024-02-16T06:05:24;9.70;99.90
64939;DHT22;51453;47.738;7.420;2024-02-16T06:07:50;9.60;99.90
64939;DHT22;51453;47.738;7.420;2024-02-16T06:10:15;9.60;99.90
64939;DHT22;51453;47.738;7.420;2024-02-16T06:12:41;9.60;99.90
64939;DHT22;51453;47.738;7.420;2024-02-16T06:15:07;9.50;99.90
64939;DHT22;51453;47.738;7.420;2024-02-16T06:17:33;9.60;99.90
64939;DHT22;51453;47.738;7.420;2024-02-16T06:19:58;9.70;99.90
64939;DHT22;51453;47.738;7.420;2024-02-16T06:22:24;9.70;99.90
64939;DHT22;51453;47.738;7.420;2024-02-16T06:24:50;9.70;99.90
64939;DHT22;51453;47.738;7.420;2024-02-16T06:27:15;9.60;99.90
64939;DHT22;51453;47.738;7.420;2024-02-16T06:29:41;9.60;99.90
64939;DHT22;51453;47.738;7.420;2024-02-16T06:32:07;9.50;99.90
64939;DHT22;51453;47.738;7.420;2024-02-16T06:34:32;9.50;99.90
64939;DHT22;51453;47.738;7.420;2024-02-16T06:36:58;9.60;99.90
64939;DHT22;51453;47.738;7.420;2024-02-16T06:39:24;9.60;99.90
64939;DHT22;51453;47.738;7.420;2024-02-16T06:41:49;9.60;99.90
64939;DHT22;51453;47.738;7.420;2024-02-16T06:44:15;9.50;99.90
64939;DHT22;51453;47.738;7.420;2024-02-16T06:46:42;9.50;99.90
64939;DHT22;51453;47.738;7.420;2024-02-16T06:49:08;9.50;99.90
64939;DHT22;51453;47.738;7.420;2024-02-16T06:51:34;9.50;99.90
64939;DHT22;51453;47.738;7.420;2024-02-16T06:53:59;9.50;99.90
64939;DHT22;51453;47.738;7.420;2024-02-16T06:56:26;9.60;99.90
64939;DHT22;51453;47.738;7.420;2024-02-16T06:58:51;9.60;99.90
64939;DHT22;51453;47.738;7.420;2024-02-16T07:01:17;9.50;99.90
64939;DHT22;51453;47.738;7.420;2024-02-16T07:03:46;9.50;99.90
64939;DHT22;51453;47.738;7.420;2024-02-16T07:06:12;9.50;99.90
64939;DHT22;51453;47.738;7.420;2024-02-16T07:08:43;9.50;99.90
64939;DHT22;51453;47.738;7.420;2024-02-16T07:11:09;9.50;99.90
64939;DHT22;51453;47.738;7.420;2024-02-16T07:13:39;9.50;99.90
64939;DHT22;51453;47.738;7.420;2024-02-16T07:16:05;9.50;99.90
64939;DHT22;51453;47.738;7.420;2024-02-16T07:18:33;9.60;99.90
64939;DHT22;51453;47.738;7.420;2024-02-16T07:20:59;9.60;99.90
64939;DHT22;51453;47.738;7.420;2024-02-16T07:23:25;9.60;99.90
64939;DHT22;51453;47.738;7.420;2024-02-16T07:25:51;9.70;99.90
64939;DHT22;51453;47.738;7.420;2024-02-16T07:28:17;9.70;99.90
64939;DHT22;51453;47.738;7.420;2024-02-16T07:30:42;9.80;99.90
64939;DHT22;51453;47.738;7.420;2024-02-16T07:33:08;9.90;99.90
64939;DHT22;51453;47.738;7.420;2024-02-16T07:35:34;9.90;99.90
64939;DHT22;51453;47.738;7.420;2024-02-16T07:38:06;9.90;99.90
64939;DHT22;51453;47.738;7.420;2024-02-16T07:40:32;9.90;99.90
64939;DHT22;51453;47.738;7.420;2024-02-16T07:42:58;9.90;99.90
64939;DHT22;51453;47.738;7.420;2024-02-16T07:45:24;10.10;99.90
64939;DHT22;51453;47.738;7.420;2024-02-16T07:47:50;10.10;99.90
64939;DHT22;51453;47.738;7.420;2024-02-16T07:50:22;10.10;99.90
64939;DHT22;51453;47.738;7.420;2024-02-16T07:52:49;10.10;99.90
64939;DHT22;51453;47.738;7.420;2024-02-16T07:55:15;10.20;99.90
64939;DHT22;51453;47.738;7.420;2024-02-16T07:57:46;10.30;99.90
64939;DHT22;51453;47.738;7.420;2024-02-16T08:00:12;10.40;99.90
64939;DHT22;51453;47.738;7.420;2024-02-16T08:02:37;10.50;99.90
64939;DHT22;51453;47.738;7.420;2024-02-16T08:05:04;10.70;99.90
64939;DHT22;51453;47.738;7.420;2024-02-16T08:07:31;10.70;99.90
64939;DHT22;51453;47.738;7.420;2024-02-16T08:09:57;10.80;99.90
64939;DHT22;51453;47.738;7.420;2024-02-16T08:12:22;10.80;99.90
64939;DHT22;51453;47.738;7.420;2024-02-16T08:14:49;10.90;99.90
64939;DHT22;51453;47.738;7.420;2024-02-16T08:17:14;11.10;99.90
64939;DHT22;51453;47.738;7.420;2024-02-16T08:19:40;11.20;99.90
64939;DHT22;51453;47.738;7.420;2024-02-16T08:22:07;11.20;99.90
64939;DHT22;51453;47.738;7.420;2024-02-16T08:24:36;11.30;99.90
64939;DHT22;51453;47.738;7.420;2024-02-16T08:27:02;11.30;99.90
64939;DHT22;51453;47.738;7.420;2024-02-16T08:29:29;11.30;99.90
64939;DHT22;51453;47.738;7.420;2024-02-16T08:31:55;11.40;99.90
64939;DHT22;51453;47.738;7.420;2024-02-16T08:34:21;11.60;99.90
64939;DHT22;51453;47.738;7.420;2024-02-16T08:36:48;11.60;99.90
64939;DHT22;51453;47.738;7.420;2024-02-16T08:39:15;11.60;99.90
64939;DHT22;51453;47.738;7.420;2024-02-16T08:41:41;11.70;99.90
64939;DHT22;51453;47.738;7.420;2024-02-16T08:44:07;11.80;99.90
64939;DHT22;51453;47.738;7.420;2024-02-16T08:46:38;11.90;99.90
64939;DHT22;51453;47.738;7.420;2024-02-16T08:49:05;11.80;99.90
64939;DHT22;51453;47.738;7.420;2024-02-16T08:51:34;11.90;99.90
64939;DHT22;51453;47.738;7.420;2024-02-16T08:54:00;12.00;99.90
64939;DHT22;51453;47.738;7.420;2024-02-16T08:56:27;12.10;99.90
64939;DHT22;51453;47.738;7.420;2024-02-16T08:58:53;12.20;99.90
64939;DHT22;51453;47.738;7.420;2024-02-16T09:01:33;12.20;99.90
64939;DHT22;51453;47.738;7.420;2024-02-16T09:03:59;12.30;99.90
64939;DHT22;51453;47.738;7.420;2024-02-16T09:06:26;12.30;99.90
64939;DHT22;51453;47.738;7.420;2024-02-16T09:08:52;12.30;99.90
64939;DHT22;51453;47.738;7.420;2024-02-16T09:11:17;12.40;99.90
64939;DHT22;51453;47.738;7.420;2024-02-16T09:13:43;12.60;99.90
64939;DHT22;51453;47.738;7.420;2024-02-16T09:16:09;12.60;99.90
64939;DHT22;51453;47.738;7.420;2024-02-16T09:18:35;12.50;99.90
64939;DHT22;51453;47.738;7.420;2024-02-16T09:21:02;12.60;99.90
64939;DHT22;51453;47.738;7.420;2024-02-16T09:23:28;12.70;99.90
64939;DHT22;51453;47.738;7.420;2024-02-16T09:25:54;12.70;99.90
64939;DHT22;51453;47.738;7.420;2024-02-16T09:28:20;12.70;99.90
64939;DHT22;51453;47.738;7.420;2024-02-16T09:30:46;12.80;99.90
64939;DHT22;51453;47.738;7.420;2024-02-16T09:33:12;12.90;99.90
64939;DHT22;51453;47.738;7.420;2024-02-16T09:35:39;12.80;99.90
64939;DHT22;51453;47.738;7.420;2024-02-16T09:38:05;12.80;99.90
64939;DHT22;51453;47.738;7.420;2024-02-16T09:40:31;12.80;99.90
64939;DHT22;51453;47.738;7.420;2024-02-16T09:42:56;13.00;99.90
64939;DHT22;51453;47.738;7.420;2024-02-16T09:45:24;13.00;99.90
64939;DHT22;51453;47.738;7.420;2024-02-16T09:47:52;13.20;99.90
64939;DHT22;51453;47.738;7.420;2024-02-16T09:50:19;13.30;99.90
64939;DHT22;51453;47.738;7.420;2024-02-16T09:52:49;13.30;99.90
64939;DHT22;51453;47.738;7.420;2024-02-16T09:55:16;13.30;99.90
64939;DHT22;51453;47.738;7.420;2024-02-16T09:57:43;13.30;99.90
64939;DHT22;51453;47.738;7.420;2024-02-16T10:00:09;13.30;99.90
64939;DHT22;51453;47.738;7.420;2024-02-16T10:03:03;13.40;99.90
64939;DHT22;51453;47.738;7.420;2024-02-16T10:05:30;13.50;99.90
64939;DHT22;51453;47.738;7.420;2024-02-16T10:07:56;13.50;99.90
64939;DHT22;51453;47.738;7.420;2024-02-16T10:10:26;13.60;99.90
64939;DHT22;51453;47.738;7.420;2024-02-16T10:13:05;13.70;99.90
64939;DHT22;51453;47.738;7.420;2024-02-16T10:15:31;13.70;99.90
64939;DHT22;51453;47.738;7.420;2024-02-16T10:18:06;13.70;99.90
64939;DHT22;51453;47.738;7.420;2024-02-16T10:20:34;13.60;99.90
64939;DHT22;51453;47.738;7.420;2024-02-16T10:23:10;13.80;99.90
64939;DHT22;51453;47.738;7.420;2024-02-16T10:25:36;13.80;99.90
64939;DHT22;51453;47.738;7.420;2024-02-16T10:28:07;13.90;99.90
64939;DHT22;51453;47.738;7.420;2024-02-16T10:30:37;14.00;99.90
64939;DHT22;51453;47.738;7.420;2024-02-16T10:33:08;14.10;99.90
64939;DHT22;51453;47.738;7.420;2024-02-16T10:35:35;14.20;99.90
64939;DHT22;51453;47.738;7.420;2024-02-16T10:38:06;14.20;99.90
64939;DHT22;51453;47.738;7.420;2024-02-16T10:40:39;14.30;99.90
64939;DHT22;51453;47.738;7.420;2024-02-16T10:43:05;14.40;99.90
64939;DHT22;51453;47.738;7.420;2024-02-16T10:45:34;14.50;99.90
64939;DHT22;51453;47.738;7.420;2024-02-16T10:48:01;14.60;99.90
64939;DHT22;51453;47.738;7.420;2024-02-16T10:50:27;14.60;99.90
64939;DHT22;51453;47.738;7.420;2024-02-16T10:52:53;14.60;99.90
64939;DHT22;51453;47.738;7.420;2024-02-16T10:55:20;14.60;99.90
64939;DHT22;51453;47.738;7.420;2024-02-16T10:57:45;14.70;99.90
64939;DHT22;51453;47.738;7.420;2024-02-16T11:00:11;14.70;99.90
64939;DHT22;51453;47.738;7.420;2024-02-16T11:02:57;14.60;99.90
64939;DHT22;51453;47.738;7.420;2024-02-16T11:05:35;14.50;99.90
64939;DHT22;51453;47.738;7.420;2024-02-16T11:08:11;14.40;99.90
64939;DHT22;51453;47.738;7.420;2024-02-16T11:10:37;14.50;99.90
64939;DHT22;51453;47.738;7.420;2024-02-16T11:13:03;14.50;99.90
64939;DHT22;51453;47.738;7.420;2024-02-16T11:15:33;14.20;99.90
64939;DHT22;51453;47.738;7.420;2024-02-16T11:18:03;14.00;99.90
64939;DHT22;51453;47.738;7.420;2024-02-16T11:20:36;13.90;99.90
64939;DHT22;51453;47.738;7.420;2024-02-16T11:23:08;13.90;99.90
64939;DHT22;51453;47.738;7.420;2024-02-16T11:25:34;14.00;99.90
64939;DHT22;51453;47.738;7.420;2024-02-16T11:28:02;14.10;99.90
64939;DHT22;51453;47.738;7.420;2024-02-16T11:30:32;14.20;99.90
64939;DHT22;51453;47.738;7.420;2024-02-16T11:32:57;14.30;99.90
64939;DHT22;51453;47.738;7.420;2024-02-16T11:35:23;14.40;99.90
64939;DHT22;51453;47.738;7.420;2024-02-16T11:37:49;14.40;99.90
64939;DHT22;51453;47.738;7.420;2024-02-16T11:40:15;14.30;99.90
64939;DHT22;51453;47.738;7.420;2024-02-16T11:42:40;14.40;99.90
64939;DHT22;51453;47.738;7.420;2024-02-16T11:45:10;14.40;99.90
64939;DHT22;51453;47.738;7.420;2024-02-16T11:47:41;14.40;99.90
64939;DHT22;51453;47.738;7.420;2024-02-16T11:50:08;14.60;99.90
64939;DHT22;51453;47.738;7.420;2024-02-16T11:52:38;14.80;99.90
64939;DHT22;51453;47.738;7.420;2024-02-16T11:55:07;14.90;99.90
64939;DHT22;51453;47.738;7.420;2024-02-16T11:57:34;15.10;99.90
64939;DHT22;51453;47.738;7.420;2024-02-16T12:00:03;15.20;99.90
64939;DHT22;51453;47.738;7.420;2024-02-16T12:02:37;15.30;99.90
64939;DHT22;51453;47.738;7.420;2024-02-16T12:05:03;15.40;99.90
64939;DHT22;51453;47.738;7.420;2024-02-16T12:07:30;15.40;99.90
64939;DHT22;51453;47.738;7.420;2024-02-16T12:10:00;15.40;99.90
64939;DHT22;51453;47.738;7.420;2024-02-16T12:12:26;15.20;99.90
64939;DHT22;51453;47.738;7.420;2024-02-16T12:14:53;15.20;99.90
64939;DHT22;51453;47.738;7.420;2024-02-16T12:17:19;15.30;99.90
64939;DHT22;51453;47.738;7.420;2024-02-16T12:19:46;15.20;99.90
64939;DHT22;51453;47.738;7.420;2024-02-16T12:22:20;15.30;99.90
64939;DHT22;51453;47.738;7.420;2024-02-16T12:24:46;15.30;99.90
64939;DHT22;51453;47.738;7.420;2024-02-16T12:27:12;15.30;99.90
64939;DHT22;51453;47.738;7.420;2024-02-16T12:29:40;15.40;99.90
64939;DHT22;51453;47.738;7.420;2024-02-16T12:32:06;15.30;99.90
64939;DHT22;51453;47.738;7.420;2024-02-16T12:34:35;15.40;99.90
64939;DHT22;51453;47.738;7.420;2024-02-16T12:37:07;15.60;99.90
64939;DHT22;51453;47.738;7.420;2024-02-16T12:39:33;15.80;99.90
64939;DHT22;51453;47.738;7.420;2024-02-16T12:41:59;15.80;99.90
64939;DHT22;51453;47.738;7.420;2024-02-16T12:44:25;15.80;99.90
64939;DHT22;51453;47.738;7.420;2024-02-16T12:46:50;15.70;99.90
64939;DHT22;51453;47.738;7.420;2024-02-16T12:49:16;15.60;99.90
64939;DHT22;51453;47.738;7.420;2024-02-16T12:51:42;15.60;99.90
64939;DHT22;51453;47.738;7.420;2024-02-16T12:54:07;15.50;99.90
64939;DHT22;51453;47.738;7.420;2024-02-16T12:56:39;15.40;99.90
64939;DHT22;51453;47.738;7.420;2024-02-16T12:59:05;15.30;99.90
64939;DHT22;51453;47.738;7.420;2024-02-16T13:01:31;15.30;99.90
64939;DHT22;51453;47.738;7.420;2024-02-16T13:03:57;15.10;99.90
64939;DHT22;51453;47.738;7.420;2024-02-16T13:06:23;15.10;99.90
64939;DHT22;51453;47.738;7.420;2024-02-16T13:08:48;15.20;99.90
64939;DHT22;51453;47.738;7.420;2024-02-16T13:11:14;15.20;99.90
64939;DHT22;51453;47.738;7.420;2024-02-16T13:13:40;15.20;99.90
64939;DHT22;51453;47.738;7.420;2024-02-16T13:16:06;15.20;99.90
64939;DHT22;51453;47.738;7.420;2024-02-16T13:18:31;15.30;99.90
64939;DHT22;51453;47.738;7.420;2024-02-16T13:20:57;15.40;99.90
64939;DHT22;51453;47.738;7.420;2024-02-16T13:23:23;15.50;99.90
64939;DHT22;51453;47.738;7.420;2024-02-16T13:25:48;15.50;99.90
64939;DHT22;51453;47.738;7.420;2024-02-16T13:28:14;15.60;99.90
64939;DHT22;51453;47.738;7.420;2024-02-16T13:30:41;15.70;99.90
64939;DHT22;51453;47.738;7.420;2024-02-16T13:33:07;15.60;99.90
64939;DHT22;51453;47.738;7.420;2024-02-16T13:35:34;15.70;99.90
64939;DHT22;51453;47.738;7.420;2024-02-16T13:38:01;15.50;99.90
64939;DHT22;51453;47.738;7.420;2024-02-16T13:40:27;15.30;99.90
64939;DHT22;51453;47.738;7.420;2024-02-16T13:42:53;15.10;99.90
64939;DHT22;51453;47.738;7.420;2024-02-16T13:45:25;15.10;99.90
64939;DHT22;51453;47.738;7.420;2024-02-16T13:47:51;15.00;99.90
64939;DHT22;51453;47.738;7.420;2024-02-16T13:50:17;14.90;99.90
64939;DHT22;51453;47.738;7.420;2024-02-16T13:52:42;14.80;99.90
64939;DHT22;51453;47.738;7.420;2024-02-16T13:55:08;14.80;99.90
64939;DHT22;51453;47.738;7.420;2024-02-16T13:57:34;14.80;99.90
64939;DHT22;51453;47.738;7.420;2024-02-16T13:59:59;14.80;99.90
64939;DHT22;51453;47.738;7.420;2024-02-16T14:02:25;14.80;99.90
64939;DHT22;51453;47.738;7.420;2024-02-16T14:04:51;14.70;99.90
64939;DHT22;51453;47.738;7.420;2024-02-16T14:07:17;14.70;99.90
64939;DHT22;51453;47.738;7.420;2024-02-16T14:09:43;14.70;99.90
64939;DHT22;51453;47.738;7.420;2024-02-16T14:12:09;14.70;99.90
64939;DHT22;51453;47.738;7.420;2024-02-16T14:55:39;14.30;99.90
64939;DHT22;51453;47.738;7.420;2024-02-16T14:58:05;14.20;99.90
64939;DHT22;51453;47.738;7.420;2024-02-16T15:00:31;14.20;99.90
64939;DHT22;51453;47.738;7.420;2024-02-16T15:02:56;14.20;99.90
64939;DHT22;51453;47.738;7.420;2024-02-16T15:05:22;14.10;99.90
64939;DHT22;51453;47.738;7.420;2024-02-16T15:07:47;14.10;99.90
64939;DHT22;51453;47.738;7.420;2024-02-16T15:10:13;14.00;99.90
64939;DHT22;51453;47.738;7.420;2024-02-16T15:12:38;14.00;99.90
64939;DHT22;51453;47.738;7.420;2024-02-16T15:15:06;13.90;99.90
64939;DHT22;51453;47.738;7.420;2024-02-16T15:17:31;13.90;99.90
64939;DHT22;51453;47.738;7.420;2024-02-16T15:19:57;13.90;99.90
64939;DHT22;51453;47.738;7.420;2024-02-16T15:22:23;14.00;99.90
64939;DHT22;51453;47.738;7.420;2024-02-16T15:24:48;14.00;99.90
64939;DHT22;51453;47.738;7.420;2024-02-16T15:27:14;13.90;99.90
64939;DHT22;51453;47.738;7.420;2024-02-16T15:29:39;14.00;99.90
64939;DHT22;51453;47.738;7.420;2024-02-16T15:32:05;14.00;99.90
64939;DHT22;51453;47.738;7.420;2024-02-16T15:34:31;14.00;99.90
64939;DHT22;51453;47.738;7.420;2024-02-16T15:36:56;14.00;99.90
64939;DHT22;51453;47.738;7.420;2024-02-16T15:39:23;14.10;99.90
64939;DHT22;51453;47.738;7.420;2024-02-16T15:41:51;14.00;99.90
64939;DHT22;51453;47.738;7.420;2024-02-16T15:44:17;13.90;99.90
64939;DHT22;51453;47.738;7.420;2024-02-16T15:46:42;13.90;99.90
64939;DHT22;51453;47.738;7.420;2024-02-16T15:49:09;13.90;99.90
64939;DHT22;51453;47.738;7.420;2024-02-16T15:51:35;13.80;99.90
64939;DHT22;51453;47.738;7.420;2024-02-16T15:57:23;13.80;99.90
64939;DHT22;51453;47.738;7.420;2024-02-16T15:59:49;13.70;99.90
64939;DHT22;51453;47.738;7.420;2024-02-16T16:02:14;13.80;99.90
64939;DHT22;51453;47.738;7.420;2024-02-16T16:04:40;13.70;99.90
64939;DHT22;51453;47.738;7.420;2024-02-16T16:07:06;13.70;99.90
64939;DHT22;51453;47.738;7.420;2024-02-16T16:09:32;13.70;99.90
64939;DHT22;51453;47.738;7.420;2024-02-16T16:11:58;13.60;99.90
64939;DHT22;51453;47.738;7.420;2024-02-16T16:14:24;13.60;99.90
64939;DHT22;51453;47.738;7.420;2024-02-16T16:16:50;13.50;99.90